Time;durP1;ratioP1;P1;durP2;ratioP2;P2;SDS_P1;SDS_P2;PMS_P1;PMS_P2;Temp;Humidity;BMP_temperature;BMP_pressure;BME280_temperature;BME280_humidity;BME280_pressure;Samples;Min_cycle;Max_cycle;Signal;HPM_P1;HPM_P2
2022/03/27 00:02:24;;;;;;;16.60;9.70;;;;;;;;;;5031393;28;20380;-78
2022/03/27 00:04:50;;;;;;;14.25;8.80;;;;;;;;;;5032140;28;20107;-78
2022/03/27 00:07:16;;;;;;;24.08;16.55;;;;;;;;;;5032351;28;20118;-78
2022/03/27 00:09:42;;;;;;;21.38;13.95;;;;;;;;;;5031945;28;20064;-79
2022/03/27 00:12:08;;;;;;;21.50;12.05;;;;;;;;;;5032267;28;20032;-77
2022/03/27 00:14:34;;;;;;;16.27;11.50;;;;;;;;;;5032009;28;20025;-78
2022/03/27 00:17:00;;;;;;;18.90;11.90;;;;;;;;;;5032183;28;20377;-77
2022/03/27 00:19:27;;;;;;;25.10;15.55;;;;;;;;;;5032103;28;20057;-77
2022/03/27 00:21:53;;;;;;;21.60;15.10;;;;;;;;;;5031906;28;20481;-78
2022/03/27 00:24:19;;;;;;;23.77;14.85;;;;;;;;;;5032104;28;20104;-77
2022/03/27 00:26:45;;;;;;;18.50;13.23;;;;;;;;;;5031714;28;20032;-77
2022/03/27 00:29:11;;;;;;;19.80;12.55;;;;;;;;;;5031958;28;20041;-78
2022/03/27 00:31:38;;;;;;;21.70;12.90;;;;;;;;;;5031725;28;20025;-78
2022/03/27 00:34:04;;;;;;;18.08;11.73;;;;;;;;;;5032505;28;20025;-78
2022/03/27 00:36:31;;;;;;;17.77;12.05;;;;;;;;;;5032556;28;20454;-78
2022/03/27 00:38:57;;;;;;;15.55;11.20;;;;;;;;;;5032290;28;20025;-77
2022/03/27 00:41:24;;;;;;;20.73;10.85;;;;;;;;;;5032417;28;20036;-78
2022/03/27 00:43:50;;;;;;;17.63;11.55;;;;;;;;;;5032167;28;20555;-77
2022/03/27 00:46:17;;;;;;;22.23;11.48;;;;;;;;;;5032497;28;20034;-78
2022/03/27 00:48:43;;;;;;;21.20;11.50;;;;;;;;;;5032458;28;20076;-78
2022/03/27 00:51:09;;;;;;;17.15;10.00;;;;;;;;;;5032557;28;20057;-77
2022/03/27 00:53:35;;;;;;;15.27;9.27;;;;;;;;;;5032332;28;20108;-78
2022/03/27 00:56:01;;;;;;;16.80;8.98;;;;;;;;;;5031961;28;20150;-78
2022/03/27 00:58:27;;;;;;;16.83;9.38;;;;;;;;;;5032372;28;20065;-77
2022/03/27 01:00:56;;;;;;;14.77;9.13;;;;;;;;;;5031974;28;20032;-77
2022/03/27 01:03:24;;;;;;;14.43;8.60;;;;;;;;;;5033212;28;20071;-78
2022/03/27 01:05:51;;;;;;;12.82;8.80;;;;;;;;;;5038504;28;20130;-76
2022/03/27 01:09:35;;;;;;;18.00;9.55;;;;;;;;;;5038757;28;20487;-77
2022/03/27 01:11:10;;;;;;;17.30;10.10;;;;;;;;;;5038783;28;20038;-76
2022/03/27 01:13:36;;;;;;;14.80;9.55;;;;;;;;;;5038565;28;20022;-76
2022/03/27 01:16:02;;;;;;;13.70;9.60;;;;;;;;;;5038810;28;20499;-77
2022/03/27 01:18:28;;;;;;;16.48;9.18;;;;;;;;;;5037237;28;20022;-76
2022/03/27 01:20:54;;;;;;;13.32;7.75;;;;;;;;;;5038439;28;20037;-78
2022/03/27 01:23:21;;;;;;;12.98;9.13;;;;;;;;;;5039202;28;20032;-78
2022/03/27 01:25:47;;;;;;;15.30;9.02;;;;;;;;;;5038683;28;20048;-78
2022/03/27 01:28:14;;;;;;;15.10;8.77;;;;;;;;;;5038796;28;20037;-78
2022/03/27 01:30:40;;;;;;;12.23;8.57;;;;;;;;;;5038564;28;20025;-78
2022/03/27 01:33:09;;;;;;;13.90;9.27;;;;;;;;;;5037596;28;20037;-78
2022/03/27 01:35:36;;;;;;;14.25;9.85;;;;;;;;;;5038409;28;20071;-76
2022/03/27 01:38:02;;;;;;;19.17;10.85;;;;;;;;;;5038627;28;20037;-77
2022/03/27 01:40:28;;;;;;;14.80;9.73;;;;;;;;;;5038465;28;20495;-78
2022/03/27 01:42:55;;;;;;;19.88;10.43;;;;;;;;;;5038275;28;20094;-77
2022/03/27 01:45:27;;;;;;;19.73;10.27;;;;;;;;;;5038554;28;20404;-77
2022/03/27 01:47:53;;;;;;;16.33;10.63;;;;;;;;;;5038166;28;20384;-77
2022/03/27 01:50:20;;;;;;;19.48;11.23;;;;;;;;;;5038346;28;20438;-76
2022/03/27 01:52:46;;;;;;;18.85;10.60;;;;;;;;;;5038157;28;20080;-78
2022/03/27 01:55:16;;;;;;;12.73;9.20;;;;;;;;;;5038087;28;20459;-76
2022/03/27 01:57:42;;;;;;;17.33;10.05;;;;;;;;;;5037985;28;20025;-77
2022/03/27 02:00:09;;;;;;;14.68;9.05;;;;;;;;;;5038460;28;20025;-77
2022/03/27 02:02:36;;;;;;;15.80;9.02;;;;;;;;;;5037984;28;20028;-77
2022/03/27 02:05:04;;;;;;;14.10;8.63;;;;;;;;;;5038285;28;20077;-77
2022/03/27 02:07:42;;;;;;;13.07;8.48;;;;;;;;;;5038092;28;20461;-78
2022/03/27 02:10:08;;;;;;;15.38;9.63;;;;;;;;;;5036972;28;20037;-77
2022/03/27 02:12:35;;;;;;;16.45;9.55;;;;;;;;;;5037959;28;20104;-78
2022/03/27 02:15:01;;;;;;;15.60;9.93;;;;;;;;;;5036743;28;20029;-76
2022/03/27 02:17:28;;;;;;;13.10;9.63;;;;;;;;;;5034385;28;20094;-77
2022/03/27 02:19:54;;;;;;;14.05;9.60;;;;;;;;;;5035057;28;20076;-77
2022/03/27 02:22:20;;;;;;;17.92;10.25;;;;;;;;;;5034976;28;20488;-77
2022/03/27 02:24:46;;;;;;;16.05;10.25;;;;;;;;;;5034792;28;20030;-77
2022/03/27 02:27:12;;;;;;;17.23;10.02;;;;;;;;;;5034792;28;20105;-77
2022/03/27 02:29:38;;;;;;;12.88;9.00;;;;;;;;;;5033134;28;20038;-77
2022/03/27 02:32:05;;;;;;;15.65;9.65;;;;;;;;;;5034931;28;20033;-78
2022/03/27 02:34:31;;;;;;;13.35;9.23;;;;;;;;;;5034590;28;20030;-78
2022/03/27 02:36:57;;;;;;;14.02;8.70;;;;;;;;;;5034713;28;20036;-76
2022/03/27 02:39:23;;;;;;;14.85;9.30;;;;;;;;;;5034744;28;20025;-77
2022/03/27 02:41:49;;;;;;;17.73;9.95;;;;;;;;;;5034436;28;20033;-78
2022/03/27 02:44:16;;;;;;;16.65;9.68;;;;;;;;;;5034527;28;20031;-77
2022/03/27 02:46:42;;;;;;;16.23;9.38;;;;;;;;;;5034307;28;20044;-78
2022/03/27 02:49:09;;;;;;;17.73;9.55;;;;;;;;;;5034465;28;20037;-77
2022/03/27 02:51:35;;;;;;;14.15;8.77;;;;;;;;;;5034456;28;20030;-78
2022/03/27 02:54:02;;;;;;;15.32;9.57;;;;;;;;;;5034168;28;20084;-78
2022/03/27 02:56:28;;;;;;;16.92;10.50;;;;;;;;;;5034226;28;20029;-77
2022/03/27 02:58:54;;;;;;;14.32;10.32;;;;;;;;;;5033961;28;20417;-77
2022/03/27 03:01:20;;;;;;;17.67;10.00;;;;;;;;;;5034272;28;20033;-77
2022/03/27 03:03:46;;;;;;;20.88;10.65;;;;;;;;;;5033961;28;20064;-78
2022/03/27 03:06:12;;;;;;;17.65;11.18;;;;;;;;;;5034291;28;20022;-78
2022/03/27 03:08:38;;;;;;;17.15;10.93;;;;;;;;;;5034041;28;20044;-77
2022/03/27 03:11:05;;;;;;;14.85;10.18;;;;;;;;;;5034088;28;20032;-77
2022/03/27 03:13:31;;;;;;;15.93;10.60;;;;;;;;;;5033902;28;20029;-77
2022/03/27 03:15:58;;;;;;;20.73;11.50;;;;;;;;;;5033788;28;20034;-76
2022/03/27 03:18:25;;;;;;;19.48;11.60;;;;;;;;;;5034063;28;20033;-76
2022/03/27 03:20:51;;;;;;;25.38;13.23;;;;;;;;;;5033699;28;20381;-78
2022/03/27 03:23:17;;;;;;;16.33;11.05;;;;;;;;;;5033988;28;20038;-77
2022/03/27 03:25:44;;;;;;;18.55;10.63;;;;;;;;;;5033612;28;20036;-77
2022/03/27 03:28:10;;;;;;;14.20;9.35;;;;;;;;;;5033408;28;20378;-78
2022/03/27 03:30:37;;;;;;;14.57;9.98;;;;;;;;;;5033789;28;20025;-79
2022/03/27 03:33:03;;;;;;;15.20;10.95;;;;;;;;;;5033458;28;20041;-76
2022/03/27 03:35:29;;;;;;;14.38;10.07;;;;;;;;;;5033724;28;20056;-77
2022/03/27 03:37:56;;;;;;;19.35;10.60;;;;;;;;;;5033348;28;20034;-78
2022/03/27 03:40:23;;;;;;;16.63;11.18;;;;;;;;;;5033599;28;20026;-77
2022/03/27 03:42:49;;;;;;;17.98;10.38;;;;;;;;;;5033330;28;20026;-78
2022/03/27 03:45:15;;;;;;;15.30;9.65;;;;;;;;;;5033530;28;20564;-77
2022/03/27 03:47:41;;;;;;;18.25;10.38;;;;;;;;;;5033437;28;20026;-78
2022/03/27 03:50:09;;;;;;;18.48;10.35;;;;;;;;;;5032877;28;20025;-78
2022/03/27 03:52:35;;;;;;;17.65;9.63;;;;;;;;;;5033357;28;20396;-77
2022/03/27 03:55:01;;;;;;;15.15;9.98;;;;;;;;;;5032745;28;20045;-78
2022/03/27 03:57:27;;;;;;;14.45;9.50;;;;;;;;;;5032929;28;20033;-77
2022/03/27 03:59:53;;;;;;;16.00;9.82;;;;;;;;;;5033104;28;20037;-77
2022/03/27 04:02:20;;;;;;;16.67;10.23;;;;;;;;;;5031193;28;20029;-77
2022/03/27 04:04:46;;;;;;;16.17;11.38;;;;;;;;;;5033163;28;20028;-78
2022/03/27 04:07:12;;;;;;;13.40;10.38;;;;;;;;;;5032767;28;20067;-77
2022/03/27 04:09:38;;;;;;;19.58;10.85;;;;;;;;;;5033043;28;20021;-78
2022/03/27 04:12:05;;;;;;;19.20;12.00;;;;;;;;;;5031296;28;20045;-78
2022/03/27 04:14:34;;;;;;;16.98;10.18;;;;;;;;;;5033285;28;20025;-78
2022/03/27 04:17:00;;;;;;;16.58;9.80;;;;;;;;;;5032660;28;20033;-78
2022/03/27 04:19:27;;;;;;;14.75;9.90;;;;;;;;;;5032884;28;20052;-78
2022/03/27 04:21:53;;;;;;;20.95;12.75;;;;;;;;;;5032592;28;20037;-78
2022/03/27 04:24:19;;;;;;;19.30;11.07;;;;;;;;;;5032581;28;20092;-78
2022/03/27 04:26:46;;;;;;;17.00;11.60;;;;;;;;;;5032851;28;20381;-78
2022/03/27 04:29:12;;;;;;;31.05;10.93;;;;;;;;;;5032326;28;20041;-77
2022/03/27 04:31:39;;;;;;;20.52;11.35;;;;;;;;;;5032802;28;20030;-77
2022/03/27 04:34:05;;;;;;;19.55;12.30;;;;;;;;;;5032427;28;20472;-77
2022/03/27 04:36:31;;;;;;;28.58;15.88;;;;;;;;;;5032746;28;20021;-77
2022/03/27 04:38:58;;;;;;;30.45;18.27;;;;;;;;;;5031694;28;20064;-78
2022/03/27 04:41:24;;;;;;;74.93;43.53;;;;;;;;;;5031103;28;20444;-77
2022/03/27 04:43:50;;;;;;;21.98;13.38;;;;;;;;;;5032521;28;20033;-78
2022/03/27 04:46:17;;;;;;;34.28;21.30;;;;;;;;;;5032472;28;20026;-78
2022/03/27 04:48:43;;;;;;;15.88;10.85;;;;;;;;;;5032466;28;20124;-78
2022/03/27 04:51:09;;;;;;;27.63;19.00;;;;;;;;;;5032193;28;20025;-77
2022/03/27 04:53:35;;;;;;;23.85;13.20;;;;;;;;;;5032296;28;20053;-77
2022/03/27 04:56:01;;;;;;;22.35;13.15;;;;;;;;;;5032191;28;20427;-78
2022/03/27 04:58:27;;;;;;;21.35;13.60;;;;;;;;;;5032182;28;20481;-76
2022/03/27 05:00:54;;;;;;;20.13;11.60;;;;;;;;;;5032344;28;20104;-77
2022/03/27 05:03:20;;;;;;;19.25;11.00;;;;;;;;;;5032086;28;20031;-78
2022/03/27 05:05:46;;;;;;;17.73;11.55;;;;;;;;;;5032150;28;20040;-76
2022/03/27 05:08:12;;;;;;;17.70;11.60;;;;;;;;;;5031702;28;20029;-76
2022/03/27 05:10:39;;;;;;;21.90;12.05;;;;;;;;;;5032259;28;20407;-78
2022/03/27 05:13:05;;;;;;;16.10;10.77;;;;;;;;;;5032048;28;20399;-77
2022/03/27 05:15:31;;;;;;;20.63;13.43;;;;;;;;;;5031937;28;20030;-77
2022/03/27 05:17:58;;;;;;;19.80;13.25;;;;;;;;;;5032197;28;20021;-78
2022/03/27 05:20:28;;;;;;;20.33;12.48;;;;;;;;;;5031965;28;20055;-77
2022/03/27 05:22:55;;;;;;;22.70;12.27;;;;;;;;;;5032137;28;20034;-78
2022/03/27 05:25:21;;;;;;;21.13;13.68;;;;;;;;;;5031790;28;20473;-78
2022/03/27 05:28:05;;;;;;;24.90;15.77;;;;;;;;;;5032135;28;20380;-76
2022/03/27 05:30:32;;;;;;;25.38;17.08;;;;;;;;;;5032091;28;20068;-77
2022/03/27 05:32:58;;;;;;;27.40;17.45;;;;;;;;;;5031970;28;20025;-78
2022/03/27 05:35:25;;;;;;;29.95;18.55;;;;;;;;;;5032361;28;20075;-76
2022/03/27 05:37:52;;;;;;;33.15;20.88;;;;;;;;;;5031919;28;20435;-77
2022/03/27 05:40:21;;;;;;;46.20;29.45;;;;;;;;;;5031644;28;20025;-78
2022/03/27 05:42:47;;;;;;;54.72;34.35;;;;;;;;;;5031896;28;20067;-77
2022/03/27 05:45:14;;;;;;;44.65;25.90;;;;;;;;;;5031680;28;20025;-77
2022/03/27 05:47:44;;;;;;;41.97;27.45;;;;;;;;;;5031580;28;20036;-78
2022/03/27 05:50:19;;;;;;;37.13;23.33;;;;;;;;;;5031684;28;20033;-80
2022/03/27 05:52:45;;;;;;;;;;;;;;;;;;5034773;28;20025;-78
2022/03/27 05:55:12;;;;;;;33.15;23.63;;;;;;;;;;5035127;28;20395;-78
2022/03/27 05:57:38;;;;;;;30.63;19.73;;;;;;;;;;5035454;28;20029;-77
2022/03/27 06:00:06;;;;;;;25.60;16.95;;;;;;;;;;5033924;28;20401;-78
2022/03/27 06:02:33;;;;;;;32.55;21.98;;;;;;;;;;5034153;28;20086;-77
2022/03/27 06:04:59;;;;;;;30.40;20.25;;;;;;;;;;5035032;28;20588;-77
2022/03/27 06:07:25;;;;;;;23.38;16.70;;;;;;;;;;5035465;28;20029;-77
2022/03/27 06:09:51;;;;;;;25.23;16.25;;;;;;;;;;5035468;28;20473;-77
2022/03/27 06:12:17;;;;;;;30.55;21.38;;;;;;;;;;5034072;28;20032;-78
2022/03/27 06:14:43;;;;;;;34.53;22.27;;;;;;;;;;5035116;28;20053;-78
2022/03/27 06:17:10;;;;;;;32.20;20.30;;;;;;;;;;5034901;28;20036;-77
2022/03/27 06:19:36;;;;;;;30.48;19.40;;;;;;;;;;5035321;28;20091;-77
2022/03/27 06:22:02;;;;;;;42.55;26.95;;;;;;;;;;5034836;28;20084;-78
2022/03/27 06:24:28;;;;;;;32.65;24.27;;;;;;;;;;5034989;28;20033;-77
2022/03/27 06:26:54;;;;;;;37.25;27.73;;;;;;;;;;5035151;28;20017;-77
2022/03/27 06:29:21;;;;;;;28.63;20.60;;;;;;;;;;5034712;28;20046;-77
2022/03/27 06:31:48;;;;;;;23.60;16.77;;;;;;;;;;5034978;28;20061;-78
2022/03/27 06:34:14;;;;;;;22.17;15.32;;;;;;;;;;5034781;28;20413;-78
2022/03/27 06:36:42;;;;;;;19.25;13.57;;;;;;;;;;5034948;28;20036;-79
2022/03/27 06:39:08;;;;;;;20.00;14.32;;;;;;;;;;5034638;28;20025;-78
2022/03/27 06:41:34;;;;;;;21.67;15.10;;;;;;;;;;5034832;28;20029;-79
2022/03/27 06:44:00;;;;;;;67.05;44.38;;;;;;;;;;5034618;28;20029;-79
2022/03/27 06:46:27;;;;;;;113.63;76.28;;;;;;;;;;5034517;28;20021;-77
2022/03/27 06:48:53;;;;;;;37.78;24.88;;;;;;;;;;5034606;28;20033;-79
2022/03/27 06:51:20;;;;;;;25.48;17.38;;;;;;;;;;5034715;28;20055;-80
2022/03/27 06:53:47;;;;;;;18.92;14.32;;;;;;;;;;5035046;28;20416;-78
2022/03/27 06:56:13;;;;;;;21.30;13.55;;;;;;;;;;5034584;28;20122;-79
2022/03/27 06:58:39;;;;;;;19.83;12.13;;;;;;;;;;5034480;28;20029;-79
2022/03/27 07:03:50;;;;;;;;;;;;;;;;;;5034694;28;20040;-78
2022/03/27 07:06:17;;;;;;;20.02;12.70;;;;;;;;;;5034106;28;19905;-79
2022/03/27 07:08:43;;;;;;;20.75;13.38;;;;;;;;;;5034199;28;20071;-79
2022/03/27 07:11:09;;;;;;;19.05;13.40;;;;;;;;;;5033907;28;20036;-79
2022/03/27 07:13:35;;;;;;;20.85;13.23;;;;;;;;;;5034180;28;20455;-79
2022/03/27 07:16:02;;;;;;;20.70;13.50;;;;;;;;;;5033878;28;20473;-77
2022/03/27 07:18:29;;;;;;;18.75;12.32;;;;;;;;;;5034118;28;20024;-78
2022/03/27 07:20:55;;;;;;;29.33;19.55;;;;;;;;;;5033883;28;20522;-78
2022/03/27 07:23:22;;;;;;;30.50;20.10;;;;;;;;;;5033793;28;20087;-78
2022/03/27 07:25:50;;;;;;;69.22;49.22;;;;;;;;;;5033945;28;20045;-78
2022/03/27 07:28:18;;;;;;;64.97;42.00;;;;;;;;;;5033385;28;20092;-79
2022/03/27 07:30:48;;;;;;;32.60;20.73;;;;;;;;;;5033773;28;20476;-79
2022/03/27 07:33:15;;;;;;;29.05;18.65;;;;;;;;;;5033433;28;20392;-78
2022/03/27 07:35:41;;;;;;;23.85;14.07;;;;;;;;;;5033732;28;20078;-79
2022/03/27 07:38:08;;;;;;;26.42;14.98;;;;;;;;;;5033262;28;20432;-78
2022/03/27 07:40:34;;;;;;;18.88;13.10;;;;;;;;;;5033535;28;20038;-78
2022/03/27 07:43:01;;;;;;;22.02;15.27;;;;;;;;;;5033256;28;20086;-78
2022/03/27 07:45:28;;;;;;;23.42;14.95;;;;;;;;;;5033138;28;20029;-78
2022/03/27 07:47:55;;;;;;;18.70;14.60;;;;;;;;;;5033446;28;20386;-77
2022/03/27 07:50:22;;;;;;;21.92;14.55;;;;;;;;;;5033152;28;20060;-78
2022/03/27 07:52:48;;;;;;;33.42;24.05;;;;;;;;;;5033339;28;20053;-77
2022/03/27 07:55:16;;;;;;;26.27;17.48;;;;;;;;;;5032742;28;20140;-78
2022/03/27 07:57:43;;;;;;;21.50;14.85;;;;;;;;;;5033489;28;20087;-78
2022/03/27 08:00:10;;;;;;;20.05;14.00;;;;;;;;;;5032999;28;20118;-78
2022/03/27 08:02:40;;;;;;;22.52;13.68;;;;;;;;;;5033118;28;20044;-78
2022/03/27 08:05:06;;;;;;;18.05;12.65;;;;;;;;;;5032649;28;20030;-75
2022/03/27 08:07:33;;;;;;;17.20;13.05;;;;;;;;;;5032755;28;20033;-79
2022/03/27 08:10:00;;;;;;;20.25;13.57;;;;;;;;;;5032703;28;20373;-79
2022/03/27 08:12:26;;;;;;;16.52;12.88;;;;;;;;;;5032808;28;20029;-78
2022/03/27 08:14:52;;;;;;;21.88;12.85;;;;;;;;;;5032092;28;20030;-78
2022/03/27 08:17:20;;;;;;;16.83;12.40;;;;;;;;;;5031514;28;20475;-78
2022/03/27 08:19:47;;;;;;;18.05;12.95;;;;;;;;;;5032908;28;20103;-78
2022/03/27 08:22:13;;;;;;;23.20;14.48;;;;;;;;;;5032582;28;20033;-78
2022/03/27 08:24:39;;;;;;;18.17;12.35;;;;;;;;;;5032847;28;20037;-79
2022/03/27 08:27:07;;;;;;;17.80;12.85;;;;;;;;;;5032455;28;20025;-77
2022/03/27 08:29:34;;;;;;;19.95;14.40;;;;;;;;;;5032599;28;20037;-79
2022/03/27 08:32:02;;;;;;;19.58;13.88;;;;;;;;;;5032417;28;20053;-78
2022/03/27 08:34:29;;;;;;;18.83;13.73;;;;;;;;;;5032505;28;20057;-78
2022/03/27 08:36:56;;;;;;;22.17;13.40;;;;;;;;;;5032487;28;20384;-81
2022/03/27 08:39:22;;;;;;;21.05;13.75;;;;;;;;;;5032445;28;20462;-78
2022/03/27 08:41:49;;;;;;;19.25;13.77;;;;;;;;;;5032534;28;20038;-78
2022/03/27 08:44:18;;;;;;;17.42;11.85;;;;;;;;;;5032281;28;20049;-78
2022/03/27 08:46:45;;;;;;;18.90;12.10;;;;;;;;;;5032307;28;20439;-78
2022/03/27 08:49:20;;;;;;;27.40;13.20;;;;;;;;;;5032109;28;20094;-78
2022/03/27 08:51:46;;;;;;;15.80;12.52;;;;;;;;;;5032563;28;20052;-78
2022/03/27 08:54:16;;;;;;;22.50;13.35;;;;;;;;;;5030863;28;20065;-79
2022/03/27 08:56:46;;;;;;;18.23;13.65;;;;;;;;;;5032348;28;20045;-78
2022/03/27 08:59:13;;;;;;;18.10;14.30;;;;;;;;;;5032184;28;20033;-78
2022/03/27 09:01:39;;;;;;;17.52;12.27;;;;;;;;;;5032275;28;20095;-78
2022/03/27 09:04:06;;;;;;;16.73;10.98;;;;;;;;;;5032103;28;20033;-77
2022/03/27 09:06:32;;;;;;;19.70;12.18;;;;;;;;;;5032130;28;20401;-79
2022/03/27 09:08:58;;;;;;;15.52;11.05;;;;;;;;;;5032143;28;20069;-78
2022/03/27 09:11:24;;;;;;;18.60;12.13;;;;;;;;;;5032245;28;20057;-77
2022/03/27 09:13:52;;;;;;;15.10;11.40;;;;;;;;;;5032082;28;20084;-78
2022/03/27 09:16:19;;;;;;;16.83;11.27;;;;;;;;;;5032317;28;20029;-78
2022/03/27 09:18:47;;;;;;;14.57;10.95;;;;;;;;;;5032466;28;20025;-77
2022/03/27 09:21:13;;;;;;;15.63;10.85;;;;;;;;;;5032202;28;20030;-78
2022/03/27 09:23:39;;;;;;;14.93;10.82;;;;;;;;;;5032396;28;20049;-78
2022/03/27 09:26:07;;;;;;;15.95;10.40;;;;;;;;;;5034768;28;20025;-78
2022/03/27 09:28:33;;;;;;;15.68;11.43;;;;;;;;;;5035914;28;20032;-77
2022/03/27 09:31:18;;;;;;;14.20;10.07;;;;;;;;;;5035842;28;20036;-78
2022/03/27 09:33:48;;;;;;;19.85;10.60;;;;;;;;;;5035683;28;20040;-79
2022/03/27 09:36:16;;;;;;;15.15;10.75;;;;;;;;;;5036052;28;20103;-78
2022/03/27 09:38:42;;;;;;;17.15;10.55;;;;;;;;;;5035600;28;20035;-78
2022/03/27 09:41:28;;;;;;;15.77;10.50;;;;;;;;;;5035914;28;20026;-78
2022/03/27 09:44:13;;;;;;;15.35;9.00;;;;;;;;;;5035769;28;20037;-78
2022/03/27 09:46:55;;;;;;;18.60;10.80;;;;;;;;;;5035524;28;20080;-78
2022/03/27 09:49:31;;;;;;;16.13;12.90;;;;;;;;;;5035638;28;20132;-78
2022/03/27 09:51:59;;;;;;;18.15;12.25;;;;;;;;;;5035377;28;20029;-78
2022/03/27 09:54:26;;;;;;;19.02;10.85;;;;;;;;;;5035335;28;20100;-78
2022/03/27 09:56:53;;;;;;;16.83;11.43;;;;;;;;;;5035511;28;20096;-78
2022/03/27 09:59:26;;;;;;;24.05;17.00;;;;;;;;;;5035687;28;20092;-78
2022/03/27 10:01:52;;;;;;;17.75;11.75;;;;;;;;;;5035328;28;20030;-78
2022/03/27 10:04:19;;;;;;;15.88;12.23;;;;;;;;;;5035435;28;20025;-78
2022/03/27 10:06:45;;;;;;;17.20;11.90;;;;;;;;;;5035257;28;20064;-78
2022/03/27 10:09:12;;;;;;;15.25;10.95;;;;;;;;;;5035377;28;20029;-78
2022/03/27 10:11:38;;;;;;;17.73;12.23;;;;;;;;;;5035289;28;20071;-77
2022/03/27 10:14:06;;;;;;;16.67;12.25;;;;;;;;;;5035086;28;20033;-77
2022/03/27 10:16:34;;;;;;;19.20;11.35;;;;;;;;;;5033872;28;20025;-77
2022/03/27 10:19:06;;;;;;;19.25;11.60;;;;;;;;;;5034842;28;20021;-78
2022/03/27 10:21:33;;;;;;;17.95;11.85;;;;;;;;;;5034988;28;20029;-78
2022/03/27 10:24:03;;;;;;;17.85;11.93;;;;;;;;;;5034818;28;20057;-78
2022/03/27 10:26:30;;;;;;;16.83;10.65;;;;;;;;;;5034982;28;20095;-77
2022/03/27 10:28:57;;;;;;;21.38;10.30;;;;;;;;;;5034560;28;20492;-76
2022/03/27 10:31:26;;;;;;;16.52;11.48;;;;;;;;;;5034910;28;20463;-77
2022/03/27 10:33:55;;;;;;;18.65;10.75;;;;;;;;;;5034711;28;20029;-78
2022/03/27 10:36:31;;;;;;;17.27;11.95;;;;;;;;;;5033851;28;20036;-76
2022/03/27 10:39:15;;;;;;;17.30;12.18;;;;;;;;;;5034869;28;20022;-82
2022/03/27 10:41:44;;;;;;;15.73;10.20;;;;;;;;;;5034950;28;20025;-81
2022/03/27 10:44:20;;;;;;;15.63;10.43;;;;;;;;;;5034776;28;20030;-82
2022/03/27 10:47:06;;;;;;;18.75;11.43;;;;;;;;;;5034618;28;20409;-76
2022/03/27 10:49:34;;;;;;;17.67;11.38;;;;;;;;;;5034298;28;20115;-77
2022/03/27 10:52:07;;;;;;;16.88;11.10;;;;;;;;;;5034495;28;20032;-79
2022/03/27 10:54:53;;;;;;;14.38;10.52;;;;;;;;;;5034461;28;20129;-79
2022/03/27 10:57:35;;;;;;;16.80;11.02;;;;;;;;;;5034405;28;20029;-81
2022/03/27 11:00:04;;;;;;;17.90;12.18;;;;;;;;;;5034545;28;20036;-77
2022/03/27 11:02:46;;;;;;;18.73;12.45;;;;;;;;;;5034087;28;20026;-78
2022/03/27 11:05:31;;;;;;;16.48;13.00;;;;;;;;;;5034205;28;20021;-79
2022/03/27 11:08:16;;;;;;;20.25;12.27;;;;;;;;;;5033835;28;20481;-78
2022/03/27 11:10:43;;;;;;;15.85;11.70;;;;;;;;;;5034016;28;20033;-79
2022/03/27 11:13:31;;;;;;;19.77;10.63;;;;;;;;;;5034145;28;20033;-79
2022/03/27 11:16:09;;;;;;;15.48;10.60;;;;;;;;;;5034153;28;20374;-78
2022/03/27 11:18:36;;;;;;;20.33;13.02;;;;;;;;;;5034272;28;20022;-83
2022/03/27 11:21:03;;;;;;;19.10;11.43;;;;;;;;;;5032970;28;20033;-84
2022/03/27 11:23:30;;;;;;;16.50;10.73;;;;;;;;;;5032948;28;20033;-83
2022/03/27 11:25:56;;;;;;;13.77;9.13;;;;;;;;;;5034214;28;20025;-82
2022/03/27 11:28:23;;;;;;;20.77;13.30;;;;;;;;;;5033842;28;20037;-81
2022/03/27 11:30:49;;;;;;;17.77;10.60;;;;;;;;;;5033837;28;20475;-81
2022/03/27 11:33:34;;;;;;;15.70;10.48;;;;;;;;;;5033596;28;20030;-77
2022/03/27 11:36:09;;;;;;;16.15;11.48;;;;;;;;;;5033495;28;20022;-77
2022/03/27 11:38:36;;;;;;;20.27;12.05;;;;;;;;;;5033566;28;20022;-79
2022/03/27 11:41:22;;;;;;;16.27;11.55;;;;;;;;;;5033415;28;20044;-78
2022/03/27 11:43:52;;;;;;;15.32;10.88;;;;;;;;;;5033110;28;20033;-79
2022/03/27 11:46:37;;;;;;;19.35;12.65;;;;;;;;;;5033026;28;20021;-78
2022/03/27 11:49:03;;;;;;;26.63;18.73;;;;;;;;;;5033067;28;20034;-79
2022/03/27 11:51:29;;;;;;;28.77;13.27;;;;;;;;;;5032964;28;20025;-77
2022/03/27 11:53:57;;;;;;;14.38;10.35;;;;;;;;;;5033082;28;20132;-78
2022/03/27 11:56:24;;;;;;;16.30;12.73;;;;;;;;;;5032971;28;20485;-78
2022/03/27 11:59:06;;;;;;;23.40;12.70;;;;;;;;;;5032923;28;20029;-79
2022/03/27 12:01:32;;;;;;;19.45;12.35;;;;;;;;;;5033061;28;20066;-77
2022/03/27 12:03:59;;;;;;;16.98;11.50;;;;;;;;;;5033156;28;20026;-77
2022/03/27 12:06:29;;;;;;;16.05;11.35;;;;;;;;;;5031543;28;20063;-79
2022/03/27 12:08:56;;;;;;;15.85;11.65;;;;;;;;;;5032921;28;20076;-78
2022/03/27 12:11:23;;;;;;;17.48;12.43;;;;;;;;;;5032763;28;20129;-77
2022/03/27 12:13:50;;;;;;;15.68;10.80;;;;;;;;;;5032965;28;20083;-80
2022/03/27 12:16:17;;;;;;;20.90;14.48;;;;;;;;;;5032501;28;20538;-78
2022/03/27 12:18:47;;;;;;;15.82;11.45;;;;;;;;;;5032757;28;20054;-80
2022/03/27 12:21:14;;;;;;;17.25;12.38;;;;;;;;;;5032616;28;20041;-79
2022/03/27 12:23:48;;;;;;;14.82;12.13;;;;;;;;;;5032780;28;20026;-79
2022/03/27 12:32:06;;;;;;;19.75;12.35;;;;;;;;;;5032949;28;20484;-82
2022/03/27 12:34:33;;;;;;;16.10;11.90;;;;;;;;;;5032524;28;20030;-79
2022/03/27 12:39:51;;;;;;;17.98;12.13;;;;;;;;;;5032387;28;20040;-76
2022/03/27 12:42:36;;;;;;;17.70;12.15;;;;;;;;;;5032306;28;20029;-77
2022/03/27 12:45:22;;;;;;;18.15;12.52;;;;;;;;;;5032349;28;20021;-77
2022/03/27 12:47:50;;;;;;;18.10;11.57;;;;;;;;;;5032309;28;20036;-75
2022/03/27 12:50:31;;;;;;;17.27;11.70;;;;;;;;;;5031146;28;20021;-77
2022/03/27 12:53:07;;;;;;;21.02;12.32;;;;;;;;;;5032058;28;20171;-77
2022/03/27 12:55:52;;;;;;;17.05;11.20;;;;;;;;;;5032327;28;20018;-77
2022/03/27 12:58:38;;;;;;;17.30;13.05;;;;;;;;;;5032107;28;20030;-77
2022/03/27 13:01:17;;;;;;;20.30;13.50;;;;;;;;;;5031554;28;20036;-77
2022/03/27 13:04:02;;;;;;;19.33;12.00;;;;;;;;;;5030676;28;20041;-77
2022/03/27 13:06:46;;;;;;;17.75;12.77;;;;;;;;;;5031892;28;20022;-77
2022/03/27 13:09:21;;;;;;;19.25;12.30;;;;;;;;;;5031788;28;20034;-77
2022/03/27 13:11:47;;;;;;;15.68;11.70;;;;;;;;;;5031926;28;20100;-79
2022/03/27 13:14:14;;;;;;;18.38;12.65;;;;;;;;;;5030686;28;20111;-78
2022/03/27 13:16:43;;;;;;;18.95;12.93;;;;;;;;;;5032256;28;20481;-78
2022/03/27 13:19:10;;;;;;;17.20;11.90;;;;;;;;;;5032062;28;20075;-78
2022/03/27 13:21:40;;;;;;;16.63;11.63;;;;;;;;;;5032231;28;20040;-77
2022/03/27 13:24:09;;;;;;;15.90;12.73;;;;;;;;;;5030620;28;20029;-77
2022/03/27 13:26:36;;;;;;;18.50;12.10;;;;;;;;;;5030700;28;20053;-78
2022/03/27 13:29:03;;;;;;;19.23;11.82;;;;;;;;;;5031555;28;20513;-78
2022/03/27 13:31:29;;;;;;;17.85;12.80;;;;;;;;;;5032145;28;20029;-78
2022/03/27 13:33:55;;;;;;;17.95;12.43;;;;;;;;;;5031682;28;20024;-77
2022/03/27 13:36:22;;;;;;;20.15;13.00;;;;;;;;;;5031873;28;20040;-77
2022/03/27 13:38:48;;;;;;;18.50;13.05;;;;;;;;;;5031825;28;20477;-77
2022/03/27 13:43:59;;;;;;;;;;;;;;;;;;5032226;28;20091;-78
2022/03/27 13:46:25;;;;;;;18.35;12.18;;;;;;;;;;5031694;28;19905;-78
2022/03/27 13:48:52;;;;;;;17.40;12.43;;;;;;;;;;5031356;28;20483;-77
2022/03/27 13:51:18;;;;;;;21.23;15.68;;;;;;;;;;5031946;28;20535;-78
2022/03/27 13:53:44;;;;;;;17.65;11.55;;;;;;;;;;5031184;28;20517;-77
2022/03/27 13:56:12;;;;;;;20.75;12.95;;;;;;;;;;5030451;28;20455;-77
2022/03/27 13:58:39;;;;;;;18.13;14.35;;;;;;;;;;5031709;28;20086;-77
2022/03/27 14:01:05;;;;;;;17.15;12.43;;;;;;;;;;5031792;28;20488;-77
2022/03/27 14:03:31;;;;;;;17.98;13.07;;;;;;;;;;5031589;28;20037;-78
2022/03/27 14:05:57;;;;;;;16.60;12.23;;;;;;;;;;5031405;28;20029;-78
2022/03/27 14:08:24;;;;;;;18.10;12.57;;;;;;;;;;5031597;28;20048;-77
2022/03/27 14:10:50;;;;;;;18.60;11.75;;;;;;;;;;5032076;28;20104;-77
2022/03/27 14:13:16;;;;;;;16.20;12.15;;;;;;;;;;5035287;28;20029;-77
2022/03/27 14:15:43;;;;;;;15.90;12.95;;;;;;;;;;5035043;28;20096;-78
2022/03/27 14:18:09;;;;;;;19.52;13.00;;;;;;;;;;5035140;28;20045;-78
2022/03/27 14:20:35;;;;;;;16.08;12.63;;;;;;;;;;5035150;28;20033;-77
2022/03/27 14:23:01;;;;;;;16.70;12.35;;;;;;;;;;5034662;28;20025;-77
2022/03/27 14:25:28;;;;;;;18.20;12.57;;;;;;;;;;5035072;28;20492;-77
2022/03/27 14:27:56;;;;;;;14.38;12.02;;;;;;;;;;5034791;28;20089;-78
2022/03/27 14:30:22;;;;;;;18.92;12.35;;;;;;;;;;5034965;28;20029;-77
2022/03/27 14:32:48;;;;;;;16.95;11.98;;;;;;;;;;5034644;28;20026;-78
2022/03/27 14:35:16;;;;;;;14.45;10.70;;;;;;;;;;5035006;28;20030;-78
2022/03/27 14:37:42;;;;;;;17.30;12.00;;;;;;;;;;5034950;28;20113;-78
2022/03/27 14:40:10;;;;;;;14.98;12.00;;;;;;;;;;5034778;28;20029;-77
2022/03/27 14:42:37;;;;;;;16.75;11.75;;;;;;;;;;5033641;28;20060;-79